Time;durP1;ratioP1;P1;durP2;ratioP2;P2;SDS_P1;SDS_P2;PMS_P1;PMS_P2;Temp;Humidity;BMP_temperature;BMP_pressure;BME280_temperature;BME280_humidity;BME280_pressure;Samples;Min_cycle;Max_cycle;Signal;HPM_P1;HPM_P2
2023/09/17 00:00:33;;;;;;;4.07;3.67;;;;;24.20;100268.00;;;;2590732;22;20270;-62
2023/09/17 00:01:34;;;;;;;3.47;3.17;;;;;24.20;100242.00;;;;2574936;22;20203;-62
2023/09/17 00:02:34;;;;;;;3.70;3.40;;;;;24.20;100247.00;;;;2576216;23;20200;-62
2023/09/17 00:03:34;;;;;;;4.17;3.87;;;;;24.20;100244.00;;;;2565224;23;20197;-62
2023/09/17 00:04:35;;;;;;;4.30;4.00;;;;;24.20;100253.00;;;;2565617;23;20196;-62
2023/09/17 00:05:35;;;;;;;4.30;3.90;;;;;24.20;100256.00;;;;2565134;23;20270;-62
2023/09/17 00:06:36;;;;;;;3.77;3.37;;;;;24.20;100340.00;;;;2563972;23;20195;-62
2023/09/17 00:07:36;;;;;;;3.73;3.43;;;;;24.20;100260.00;;;;2590660;22;20638;-62
2023/09/17 00:08:37;;;;;;;4.67;4.07;;;;;24.20;100255.00;;;;2590442;22;20191;-62
2023/09/17 00:09:37;;;;;;;4.15;3.75;;;;;24.20;100252.00;;;;2565186;23;20197;-62
2023/09/17 00:10:41;;;;;;;3.87;3.57;;;;;24.20;100247.00;;;;2565958;23;20627;-62
2023/09/17 00:11:41;;;;;;;3.80;3.50;;;;;24.20;100252.00;;;;2576064;22;20203;-62
2023/09/17 00:12:41;;;;;;;3.93;3.63;;;;;24.20;100240.00;;;;2577162;23;20192;-62
2023/09/17 00:13:42;;;;;;;3.67;3.37;;;;;24.20;100240.00;;;;2565581;23;20185;-62
2023/09/17 00:14:42;;;;;;;3.93;3.60;;;;;24.20;100239.00;;;;2576853;23;20566;-61
2023/09/17 00:15:42;;;;;;;3.20;2.93;;;;;24.20;100236.00;;;;2578436;23;20192;-62
2023/09/17 00:16:43;;;;;;;3.93;3.63;;;;;24.20;100240.00;;;;2562740;23;20242;-61
2023/09/17 00:17:43;;;;;;;3.70;3.40;;;;;24.20;100241.00;;;;2577906;23;20688;-62
2023/09/17 00:18:43;;;;;;;3.53;3.23;;;;;24.20;100232.00;;;;2552402;23;20642;-62
2023/09/17 00:19:44;;;;;;;3.97;3.67;;;;;24.20;100247.00;;;;2528443;23;20674;-62
2023/09/17 00:20:44;;;;;;;3.50;3.20;;;;;24.20;100240.00;;;;2565204;22;20658;-62
2023/09/17 00:21:44;;;;;;;4.23;3.83;;;;;24.20;100243.00;;;;2562267;22;20400;-62
2023/09/17 00:22:45;;;;;;;3.40;3.10;;;;;24.20;100251.00;;;;2573232;23;20666;-62
2023/09/17 00:23:45;;;;;;;4.70;3.90;;;;;24.20;100241.00;;;;2590838;22;20196;-62
2023/09/17 00:24:45;;;;;;;3.33;3.03;;;;;24.20;100246.00;;;;2577333;23;20200;-62
2023/09/17 00:25:46;;;;;;;3.90;3.60;;;;;24.20;100236.00;;;;2565885;23;20193;-62
2023/09/17 00:26:46;;;;;;;4.10;3.70;;;;;24.20;100246.00;;;;2562856;23;20223;-62
2023/09/17 00:27:47;;;;;;;4.23;3.87;;;;;24.20;100233.00;;;;2591453;22;20194;-62
2023/09/17 00:28:47;;;;;;;4.17;3.87;;;;;24.10;100234.00;;;;2590090;22;20584;-62
2023/09/17 00:29:48;;;;;;;4.00;3.60;;;;;24.20;100237.00;;;;2591680;22;20261;-62
2023/09/17 00:30:48;;;;;;;3.83;3.47;;;;;24.20;100237.00;;;;2580878;22;20375;-62
2023/09/17 00:31:48;;;;;;;4.43;4.03;;;;;24.20;100237.00;;;;2589727;22;20316;-61
2023/09/17 00:32:49;;;;;;;4.20;3.90;;;;;24.20;100242.00;;;;2590890;22;20200;-61
2023/09/17 00:33:49;;;;;;;4.20;3.90;;;;;23.10;100240.00;;;;2591211;22;20280;-62
2023/09/17 00:34:49;;;;;;;3.50;3.20;;;;;24.20;100235.00;;;;2591444;22;20256;-61
2023/09/17 00:35:50;;;;;;;4.17;3.83;;;;;24.20;100242.00;;;;2575701;22;20208;-61
2023/09/17 00:36:50;;;;;;;4.07;3.77;;;;;24.20;100230.00;;;;2590774;22;20188;-61
2023/09/17 00:37:51;;;;;;;3.90;3.50;;;;;24.20;100234.00;;;;2577396;23;20694;-62
2023/09/17 00:38:51;;;;;;;4.20;3.87;;;;;24.20;100249.00;;;;2564315;23;20212;-62
2023/09/17 00:39:52;;;;;;;4.30;4.00;;;;;24.20;100236.00;;;;2577772;23;20494;-62
2023/09/17 00:40:52;;;;;;;4.30;3.90;;;;;24.20;100236.00;;;;2562613;22;20274;-62
2023/09/17 00:41:52;;;;;;;3.57;3.27;;;;;24.20;100239.00;;;;2576964;23;20212;-62
2023/09/17 00:42:53;;;;;;;4.30;4.00;;;;;24.20;100232.00;;;;2589149;22;20203;-61
2023/09/17 00:43:53;;;;;;;4.20;3.90;;;;;24.20;100237.00;;;;2576432;23;20265;-62
2023/09/17 00:44:53;;;;;;;4.00;3.60;;;;;24.20;100237.00;;;;2574835;23;20196;-62
2023/09/17 00:45:54;;;;;;;3.67;3.37;;;;;24.20;100229.00;;;;2574733;22;20195;-60
2023/09/17 00:46:56;;;;;;;3.47;3.17;;;;;24.20;100223.00;;;;2575900;23;20539;-62
2023/09/17 00:47:56;;;;;;;3.85;3.55;;;;;24.20;100236.00;;;;2562004;23;20200;-61
2023/09/17 00:48:56;;;;;;;3.70;3.40;;;;;24.20;100225.00;;;;2564841;23;20201;-61
2023/09/17 00:49:57;;;;;;;3.73;3.43;;;;;24.20;100230.00;;;;2551729;23;20527;-62
2023/09/17 00:50:57;;;;;;;4.37;3.97;;;;;24.20;100235.00;;;;2550851;23;20203;-62
2023/09/17 00:51:58;;;;;;;3.77;3.47;;;;;24.20;100233.00;;;;2565191;23;20203;-62
2023/09/17 00:52:58;;;;;;;4.27;3.50;;;;;24.20;100234.00;;;;2565534;23;20215;-60
2023/09/17 00:53:59;;;;;;;4.30;3.90;;;;;24.20;100233.00;;;;2565655;23;20252;-62
2023/09/17 00:54:59;;;;;;;4.13;3.73;;;;;24.20;100237.00;;;;2563826;23;20188;-62
2023/09/17 00:56:00;;;;;;;3.70;3.40;;;;;24.20;100236.00;;;;2536987;23;20200;-62
2023/09/17 00:57:00;;;;;;;4.20;3.80;;;;;24.20;100236.00;;;;2537230;23;20649;-62
2023/09/17 00:58:00;;;;;;;3.63;3.33;;;;;24.20;100244.00;;;;2550034;23;20269;-62
2023/09/17 00:59:01;;;;;;;3.67;3.37;;;;;24.10;100242.00;;;;2561208;23;20205;-61
2023/09/17 01:00:03;;;;;;;3.60;3.30;;;;;24.20;100216.00;;;;2552283;23;20205;-62
2023/09/17 01:01:07;;;;;;;4.32;3.92;;;;;24.20;100248.00;;;;2526727;23;20202;-61
2023/09/17 01:02:08;;;;;;;4.05;3.75;;;;;24.20;100253.00;;;;2553581;23;20197;-61
2023/09/17 01:03:08;;;;;;;3.87;3.57;;;;;24.20;100258.00;;;;2553562;23;20222;-62
2023/09/17 01:04:08;;;;;;;3.90;3.60;;;;;24.10;100261.00;;;;2540430;23;20233;-62
2023/09/17 01:05:09;;;;;;;4.17;3.77;;;;;24.20;100263.00;;;;2553129;23;20733;-62
2023/09/17 01:06:12;;;;;;;4.50;3.60;;;;;24.20;100213.00;;;;2549132;23;20208;-61
2023/09/17 01:07:12;;;;;;;4.38;3.97;;;;;24.20;100259.00;;;;2557746;23;20185;-61
2023/09/17 01:08:13;;;;;;;4.50;4.10;;;;;24.20;100263.00;;;;2562215;23;20523;-62
2023/09/17 01:09:13;;;;;;;3.70;3.40;;;;;24.20;100275.00;;;;2551449;23;20532;-60
2023/09/17 01:10:14;;;;;;;3.83;3.53;;;;;24.20;100270.00;;;;2562895;22;20275;-62
2023/09/17 01:11:14;;;;;;;4.30;4.00;;;;;24.20;100271.00;;;;2537410;23;20202;-64
2023/09/17 01:12:15;;;;;;;4.70;4.20;;;;;24.20;100274.00;;;;2563019;23;20201;-62
2023/09/17 01:13:15;;;;;;;4.07;3.77;;;;;24.20;100266.00;;;;2561433;23;20197;-61
2023/09/17 01:14:16;;;;;;;4.00;3.70;;;;;24.20;100275.00;;;;2538261;23;20225;-62
2023/09/17 01:15:16;;;;;;;4.35;4.05;;;;;24.20;100284.00;;;;2551935;23;20193;-62
2023/09/17 01:16:17;;;;;;;3.60;3.30;;;;;24.20;100279.00;;;;2563000;22;20855;-62
2023/09/17 01:17:17;;;;;;;3.40;3.10;;;;;24.20;100237.00;;;;2578005;23;20222;-62
2023/09/17 01:18:21;;;;;;;4.47;4.07;;;;;24.20;100280.00;;;;2564621;23;20271;-61
2023/09/17 01:19:29;;;;;;;3.75;3.45;;;;;24.20;100287.00;;;;2552780;23;20202;-60
2023/09/17 01:20:30;;;;;;;3.75;3.45;;;;;24.20;100279.00;;;;2569480;22;20197;-62
2023/09/17 01:21:38;;;;;;;3.65;3.35;;;;;24.20;100274.00;;;;2550677;23;20268;-62
2023/09/17 01:22:41;;;;;;;3.60;3.30;;;;;24.20;100269.00;;;;2554754;22;20209;-61
2023/09/17 01:23:46;;;;;;;5.32;4.13;;;;;24.10;100268.00;;;;2552549;23;20189;-62
2023/09/17 01:25:05;;;;;;;4.28;3.88;;;;;24.20;100263.00;;;;2540366;23;20222;-62
2023/09/17 01:26:26;;;;;;;4.05;3.70;;;;;24.20;100265.00;;;;2559775;22;20270;-62
2023/09/17 01:27:26;;;;;;;4.28;3.97;;;;;24.10;100268.00;;;;2576803;23;20779;-61
2023/09/17 01:28:27;;;;;;;4.17;3.87;;;;;24.20;100251.00;;;;2561530;23;20197;-61
2023/09/17 01:29:32;;;;;;;4.00;3.70;;;;;24.20;100269.00;;;;2562411;23;20246;-62
2023/09/17 01:30:32;;;;;;;4.10;3.80;;;;;24.10;100267.00;;;;2554397;23;20204;-62
2023/09/17 01:31:34;;;;;;;3.97;3.57;;;;;24.20;100269.00;;;;2549857;23;20204;-61
2023/09/17 01:32:35;;;;;;;3.80;3.50;;;;;24.20;100261.00;;;;2575512;22;20192;-61
2023/09/17 01:33:35;;;;;;;3.63;3.33;;;;;24.20;100264.00;;;;2572356;23;20800;-61
2023/09/17 01:34:37;;;;;;;4.20;3.90;;;;;24.20;100285.00;;;;2564892;23;20264;-62
2023/09/17 01:35:43;;;;;;;4.10;3.80;;;;;24.20;100258.00;;;;2540849;23;20531;-62
2023/09/17 01:36:44;;;;;;;4.10;3.80;;;;;24.10;100264.00;;;;2516944;23;20194;-62
2023/09/17 01:37:47;;;;;;;4.00;3.70;;;;;24.20;100264.00;;;;2549299;23;20190;-62
2023/09/17 01:38:49;;;;;;;3.97;3.67;;;;;24.20;100261.00;;;;2564292;23;20197;-61
2023/09/17 01:39:53;;;;;;;3.63;3.33;;;;;24.10;100258.00;;;;2565185;23;20196;-62
2023/09/17 01:40:53;;;;;;;4.10;3.80;;;;;24.20;100260.00;;;;2536286;23;20773;-61
2023/09/17 01:41:54;;;;;;;4.23;3.93;;;;;24.10;100262.00;;;;2534770;23;20194;-62
2023/09/17 01:42:55;;;;;;;3.90;3.60;;;;;24.20;100254.00;;;;2551859;23;20189;-62
2023/09/17 01:43:55;;;;;;;3.80;3.50;;;;;24.10;100256.00;;;;2539089;23;20430;-60
2023/09/17 01:44:58;;;;;;;3.80;3.50;;;;;24.10;100256.00;;;;2540531;23;20231;-61
2023/09/17 01:45:59;;;;;;;4.28;3.88;;;;;24.10;100256.00;;;;2539326;23;20198;-62
2023/09/17 01:47:00;;;;;;;3.80;3.50;;;;;24.10;100250.00;;;;2552035;23;20194;-61
2023/09/17 01:48:00;;;;;;;3.80;3.50;;;;;24.20;100248.00;;;;2552653;23;20201;-62
2023/09/17 01:49:01;;;;;;;4.40;4.10;;;;;24.10;100242.00;;;;2547061;23;20243;-62
2023/09/17 01:50:05;;;;;;;3.97;3.67;;;;;24.10;100242.00;;;;2540413;23;20193;-62
2023/09/17 01:51:07;;;;;;;3.55;3.25;;;;;24.10;100244.00;;;;2526919;23;20780;-60
2023/09/17 01:52:07;;;;;;;3.67;3.30;;;;;24.20;100251.00;;;;2541061;23;20202;-61
2023/09/17 01:53:07;;;;;;;3.90;3.60;;;;;24.10;100217.00;;;;2550283;23;20193;-61
2023/09/17 01:54:08;;;;;;;4.20;3.80;;;;;24.10;100232.00;;;;2562465;23;20189;-61
2023/09/17 01:55:08;;;;;;;4.07;3.77;;;;;24.10;100250.00;;;;2540448;23;20194;-62
2023/09/17 01:56:11;;;;;;;3.90;3.60;;;;;24.10;100244.00;;;;2535287;23;20707;-61
2023/09/17 01:57:11;;;;;;;3.72;3.42;;;;;24.10;100241.00;;;;2551980;23;20189;-63
2023/09/17 01:58:12;;;;;;;3.80;3.50;;;;;24.10;100240.00;;;;2564658;23;20197;-61
2023/09/17 01:59:12;;;;;;;3.77;3.47;;;;;24.10;100240.00;;;;2590067;22;20294;-60
2023/09/17 02:00:19;;;;;;;3.70;3.40;;;;;24.10;100230.00;;;;2588290;22;20199;-62
2023/09/17 02:01:19;;;;;;;4.43;4.10;;;;;24.10;100242.00;;;;2561908;22;20600;-61
2023/09/17 02:02:21;;;;;;;4.60;4.20;;;;;24.10;100232.00;;;;2574289;22;20315;-62
2023/09/17 02:03:22;;;;;;;4.28;3.97;;;;;24.10;100236.00;;;;2577885;23;20196;-61
2023/09/17 02:04:22;;;;;;;4.47;4.07;;;;;24.10;100236.00;;;;2563749;23;20197;-62
2023/09/17 02:05:25;;;;;;;3.70;3.40;;;;;24.20;100239.00;;;;2576326;23;20196;-60
2023/09/17 02:06:25;;;;;;;4.00;3.70;;;;;24.10;100239.00;;;;2570055;22;20838;-61
2023/09/17 02:07:26;;;;;;;4.00;3.70;;;;;24.10;100236.00;;;;2589998;22;20206;-62
2023/09/17 02:08:26;;;;;;;3.73;3.43;;;;;24.10;100243.00;;;;2590440;22;20460;-61
2023/09/17 02:09:27;;;;;;;3.90;3.60;;;;;24.20;100235.00;;;;2587631;22;20545;-61
2023/09/17 02:10:27;;;;;;;3.97;3.67;;;;;24.20;100225.00;;;;2591281;22;20199;-62
2023/09/17 02:11:27;;;;;;;3.90;3.60;;;;;24.10;100234.00;;;;2575017;22;20208;-62
2023/09/17 02:12:28;;;;;;;4.50;4.10;;;;;24.10;100236.00;;;;2591167;22;20257;-62
2023/09/17 02:13:29;;;;;;;4.27;3.97;;;;;24.10;100241.00;;;;2576713;23;20204;-61
2023/09/17 02:14:29;;;;;;;4.07;3.77;;;;;24.10;100242.00;;;;2577890;22;20454;-62
2023/09/17 02:15:29;;;;;;;3.80;3.50;;;;;24.10;100229.00;;;;2591194;22;20200;-61
2023/09/17 02:16:31;;;;;;;4.17;3.87;;;;;24.10;100238.00;;;;2573604;22;20200;-61
2023/09/17 02:17:31;;;;;;;4.55;4.25;;;;;24.10;100235.00;;;;2590999;22;20226;-62
2023/09/17 02:18:32;;;;;;;3.63;3.33;;;;;24.10;100231.00;;;;2589202;22;20273;-61
2023/09/17 02:19:32;;;;;;;4.13;3.83;;;;;24.10;100232.00;;;;2588681;22;22999;-62
2023/09/17 02:20:38;;;;;;;3.87;3.57;;;;;24.20;100233.00;;;;2577756;23;20223;-61
2023/09/17 02:21:38;;;;;;;3.70;3.40;;;;;24.20;100233.00;;;;2550728;23;20255;-62
2023/09/17 02:22:38;;;;;;;4.67;4.27;;;;;24.20;100228.00;;;;2563461;23;20203;-62
2023/09/17 02:23:39;;;;;;;4.43;4.10;;;;;24.10;100229.00;;;;2564149;23;20199;-61
2023/09/17 02:24:39;;;;;;;4.37;3.97;;;;;24.10;100215.00;;;;2575657;22;20218;-60
2023/09/17 02:25:39;;;;;;;4.00;3.70;;;;;24.10;100223.00;;;;2589865;22;20222;-61
2023/09/17 02:26:40;;;;;;;4.10;3.70;;;;;24.10;100216.00;;;;2576088;22;20191;-61
2023/09/17 02:27:40;;;;;;;3.63;3.33;;;;;24.10;100240.00;;;;2590028;22;20195;-61
2023/09/17 02:28:40;;;;;;;4.03;3.73;;;;;24.10;100229.00;;;;2576633;23;20527;-60
2023/09/17 02:29:41;;;;;;;3.83;3.53;;;;;24.20;100225.00;;;;2575965;23;20790;-61
2023/09/17 02:30:41;;;;;;;3.90;3.60;;;;;24.10;100215.00;;;;2590493;22;20616;-61
2023/09/17 02:31:42;;;;;;;3.80;3.50;;;;;24.10;100213.00;;;;2575008;22;20196;-60
2023/09/17 02:32:43;;;;;;;4.10;3.80;;;;;24.10;100222.00;;;;2590524;22;20222;-61
2023/09/17 02:33:43;;;;;;;4.40;4.00;;;;;24.20;100214.00;;;;2590798;22;20195;-61
2023/09/17 02:34:44;;;;;;;4.37;3.97;;;;;24.10;100207.00;;;;2590967;22;20191;-61
2023/09/17 02:35:44;;;;;;;4.43;4.03;;;;;24.10;100217.00;;;;2590500;22;20198;-64
2023/09/17 02:36:45;;;;;;;4.10;3.80;;;;;24.10;100220.00;;;;2575370;22;20215;-63
2023/09/17 02:37:45;;;;;;;4.00;3.70;;;;;24.10;100210.00;;;;2590497;22;20658;-63
2023/09/17 02:38:45;;;;;;;4.27;3.97;;;;;24.10;100212.00;;;;2587614;22;20527;-64
2023/09/17 02:39:47;;;;;;;3.90;3.60;;;;;24.10;100261.00;;;;2589456;22;20191;-62
2023/09/17 02:40:47;;;;;;;4.65;4.25;;;;;24.10;100214.00;;;;2587651;22;20195;-64
2023/09/17 02:41:47;;;;;;;4.33;4.03;;;;;24.10;100213.00;;;;2563445;22;20239;-62
2023/09/17 02:42:48;;;;;;;4.27;3.90;;;;;24.10;100207.00;;;;2576770;22;20192;-61
2023/09/17 02:43:48;;;;;;;4.67;4.27;;;;;24.10;100204.00;;;;2589344;22;20241;-60
2023/09/17 02:44:49;;;;;;;4.10;3.70;;;;;24.10;100205.00;;;;2573874;23;20246;-61
2023/09/17 02:45:49;;;;;;;4.23;3.93;;;;;24.10;100205.00;;;;2561135;23;20196;-61
2023/09/17 02:46:49;;;;;;;4.17;3.83;;;;;24.10;100202.00;;;;2590331;22;20191;-62
2023/09/17 02:47:51;;;;;;;4.03;3.70;;;;;24.10;100198.00;;;;2591087;22;20241;-62
2023/09/17 02:48:53;;;;;;;4.18;3.78;;;;;24.10;100199.00;;;;2575314;23;20716;-61
2023/09/17 02:49:54;;;;;;;3.85;3.55;;;;;24.10;100207.00;;;;2574584;22;20208;-61
2023/09/17 02:50:54;;;;;;;4.43;4.03;;;;;24.10;100201.00;;;;2574717;22;20202;-62
2023/09/17 02:51:54;;;;;;;3.90;3.60;;;;;24.10;100206.00;;;;2590547;22;20196;-61
2023/09/17 02:52:55;;;;;;;4.57;4.17;;;;;24.10;100196.00;;;;2590852;22;20215;-62
2023/09/17 02:53:55;;;;;;;3.67;3.37;;;;;24.10;100203.00;;;;2589899;22;20198;-61
2023/09/17 02:54:55;;;;;;;4.47;4.07;;;;;24.10;100200.00;;;;2574339;23;20242;-62
2023/09/17 02:55:56;;;;;;;3.53;3.23;;;;;24.10;100206.00;;;;2562533;22;20196;-62
2023/09/17 02:56:56;;;;;;;3.80;3.50;;;;;24.10;100211.00;;;;2574244;23;20192;-62
2023/09/17 02:57:56;;;;;;;4.40;4.00;;;;;24.10;100201.00;;;;2574606;23;20188;-61
2023/09/17 02:58:58;;;;;;;4.50;4.10;;;;;24.10;100208.00;;;;2588923;22;20207;-62
2023/09/17 02:59:58;;;;;;;4.65;4.25;;;;;24.10;100211.00;;;;2577799;23;20188;-61
2023/09/17 03:00:58;;;;;;;4.77;4.37;;;;;24.10;100210.00;;;;2555200;22;20192;-62
2023/09/17 03:01:59;;;;;;;3.90;3.60;;;;;24.10;100208.00;;;;2590836;22;20207;-62
2023/09/17 03:02:59;;;;;;;4.30;3.90;;;;;24.10;100099.00;;;;2591129;22;20195;-63
2023/09/17 03:04:00;;;;;;;4.00;3.70;;;;;24.10;100219.00;;;;2590870;22;20581;-62
2023/09/17 03:05:00;;;;;;;3.97;3.67;;;;;24.10;100209.00;;;;2590322;22;20693;-62
2023/09/17 03:06:02;;;;;;;3.80;3.50;;;;;24.10;100206.00;;;;2576377;22;20195;-62
2023/09/17 03:07:04;;;;;;;4.22;3.92;;;;;24.10;100217.00;;;;2590677;22;20199;-62
2023/09/17 03:08:09;;;;;;;4.18;3.88;;;;;24.10;100212.00;;;;2589499;22;20184;-62
2023/09/17 03:09:11;;;;;;;3.80;3.50;;;;;24.10;100209.00;;;;2584414;22;20198;-62
2023/09/17 03:10:12;;;;;;;4.32;3.92;;;;;24.10;100214.00;;;;2590763;22;20199;-62
2023/09/17 03:11:13;;;;;;;4.00;3.70;;;;;24.10;100199.00;;;;2573203;22;21847;-62
2023/09/17 03:12:14;;;;;;;4.28;3.97;;;;;24.10;100208.00;;;;2574156;23;20262;-62
2023/09/17 03:13:14;;;;;;;3.83;3.53;;;;;24.10;100204.00;;;;2577628;22;20285;-62
2023/09/17 03:14:14;;;;;;;3.93;3.63;;;;;24.10;100200.00;;;;2577431;23;20200;-62
2023/09/17 03:15:15;;;;;;;3.97;3.67;;;;;24.10;100193.00;;;;2564904;23;20675;-62
2023/09/17 03:16:16;;;;;;;4.40;4.10;;;;;24.10;100198.00;;;;2550259;23;20208;-62
2023/09/17 03:17:17;;;;;;;3.67;3.37;;;;;24.10;100194.00;;;;2576223;22;20250;-62
2023/09/17 03:18:17;;;;;;;4.00;3.70;;;;;24.10;100197.00;;;;2589635;22;20289;-62
2023/09/17 03:19:19;;;;;;;4.57;4.17;;;;;24.10;100190.00;;;;2588341;22;20587;-62
2023/09/17 03:20:22;;;;;;;3.80;3.50;;;;;24.10;100194.00;;;;2590206;22;20195;-63
2023/09/17 03:21:22;;;;;;;4.10;3.80;;;;;24.10;100180.00;;;;2572914;22;20203;-63
2023/09/17 03:22:22;;;;;;;4.07;3.77;;;;;24.10;100188.00;;;;2577900;23;20326;-62
2023/09/17 03:23:23;;;;;;;4.13;3.80;;;;;24.10;100185.00;;;;2564573;23;20251;-63
2023/09/17 03:24:23;;;;;;;4.57;4.17;;;;;24.10;100193.00;;;;2576833;23;20203;-63
2023/09/17 03:25:23;;;;;;;4.00;3.70;;;;;24.10;100186.00;;;;2590360;22;20195;-62
2023/09/17 03:26:24;;;;;;;4.30;4.00;;;;;24.10;100188.00;;;;2573723;22;20223;-63
2023/09/17 03:27:24;;;;;;;4.40;3.97;;;;;24.10;100196.00;;;;2590353;22;20195;-65
2023/09/17 03:28:25;;;;;;;4.17;3.87;;;;;24.10;100182.00;;;;2586841;22;20402;-63
2023/09/17 03:29:25;;;;;;;4.57;4.17;;;;;24.10;100193.00;;;;2589148;22;20244;-63
2023/09/17 03:30:26;;;;;;;3.87;3.57;;;;;24.10;100194.00;;;;2578991;22;20256;-63
2023/09/17 03:31:27;;;;;;;4.30;4.00;;;;;24.10;100192.00;;;;2562422;22;20963;-63
2023/09/17 03:32:27;;;;;;;4.50;4.20;;;;;24.10;100192.00;;;;2563633;23;20212;-63
2023/09/17 03:33:29;;;;;;;4.00;3.70;;;;;24.10;100190.00;;;;2564359;23;20659;-63
2023/09/17 03:34:29;;;;;;;4.32;3.45;;;;;24.10;100200.00;;;;2577764;22;20250;-63
2023/09/17 03:35:29;;;;;;;4.47;4.07;;;;;24.10;100194.00;;;;2576357;23;20253;-62
2023/09/17 03:36:30;;;;;;;3.33;3.13;;;;;24.10;100196.00;;;;2562877;23;20302;-62
2023/09/17 03:37:30;;;;;;;3.90;3.60;;;;;24.10;100198.00;;;;2590296;22;20210;-62
2023/09/17 03:38:33;;;;;;;3.60;3.30;;;;;24.10;100193.00;;;;2590057;22;20256;-62
2023/09/17 03:39:33;;;;;;;3.90;3.60;;;;;24.10;100188.00;;;;2588408;22;20684;-62
2023/09/17 03:40:33;;;;;;;3.57;3.27;;;;;24.10;100186.00;;;;2589737;22;20191;-62
2023/09/17 03:41:34;;;;;;;3.70;3.40;;;;;24.10;100186.00;;;;2575925;22;20214;-63
2023/09/17 03:42:35;;;;;;;4.30;3.93;;;;;24.10;100184.00;;;;2576852;23;20627;-63
2023/09/17 03:43:36;;;;;;;4.05;3.75;;;;;24.10;100139.00;;;;2565007;23;20992;-62
2023/09/17 03:44:36;;;;;;;4.13;3.83;;;;;24.10;100185.00;;;;2563002;23;20204;-62
2023/09/17 03:45:37;;;;;;;4.20;3.90;;;;;24.10;100184.00;;;;2574455;22;20419;-62
2023/09/17 03:46:37;;;;;;;3.53;3.23;;;;;24.10;100185.00;;;;2574980;22;20220;-62
2023/09/17 03:47:40;;;;;;;4.10;3.80;;;;;24.10;100185.00;;;;2576721;22;20249;-62
2023/09/17 03:48:41;;;;;;;3.92;3.63;;;;;24.10;100185.00;;;;2564208;23;20208;-62
2023/09/17 03:49:44;;;;;;;3.87;3.57;;;;;24.10;100179.00;;;;2574460;23;20203;-62
2023/09/17 03:50:45;;;;;;;4.63;4.22;;;;;24.10;100181.00;;;;2577084;23;20597;-62
2023/09/17 03:51:47;;;;;;;4.13;3.83;;;;;24.10;100174.00;;;;2548233;23;20268;-62
2023/09/17 03:52:49;;;;;;;3.63;3.33;;;;;24.10;100160.00;;;;2577593;22;20238;-62
2023/09/17 03:53:50;;;;;;;3.72;3.42;;;;;24.10;100175.00;;;;2564626;23;20193;-62
2023/09/17 03:54:50;;;;;;;3.60;3.30;;;;;24.10;100176.00;;;;2563254;22;20899;-62
2023/09/17 03:55:50;;;;;;;3.67;3.37;;;;;24.10;100174.00;;;;2559784;23;20429;-63
2023/09/17 03:56:51;;;;;;;3.90;3.60;;;;;24.10;100174.00;;;;2564494;23;20193;-62
2023/09/17 03:57:51;;;;;;;4.33;3.93;;;;;24.10;100170.00;;;;2577370;23;20192;-62
2023/09/17 03:58:53;;;;;;;4.10;3.77;;;;;24.10;100173.00;;;;2560530;23;20971;-62
2023/09/17 03:59:54;;;;;;;4.03;3.72;;;;;24.10;100182.00;;;;2538504;23;20201;-66
2023/09/17 04:00:54;;;;;;;4.00;3.70;;;;;24.10;100172.00;;;;2538353;23;20194;-63
2023/09/17 04:01:54;;;;;;;3.90;3.50;;;;;24.10;100169.00;;;;2576702;23;20239;-63
2023/09/17 04:02:55;;;;;;;3.50;3.20;;;;;24.10;100176.00;;;;2590633;22;20191;-63
2023/09/17 04:03:55;;;;;;;4.07;3.77;;;;;24.10;100174.00;;;;2577436;23;20192;-63
2023/09/17 04:04:55;;;;;;;4.20;3.90;;;;;24.10;100181.00;;;;2577769;23;20242;-63
2023/09/17 04:05:56;;;;;;;3.87;3.57;;;;;24.10;100168.00;;;;2573486;22;20257;-63
2023/09/17 04:06:56;;;;;;;3.90;3.60;;;;;24.10;100175.00;;;;2588635;22;20192;-62
2023/09/17 04:07:57;;;;;;;4.07;3.77;;;;;24.10;100168.00;;;;2591486;22;20191;-62
2023/09/17 04:08:57;;;;;;;3.73;3.43;;;;;24.10;100175.00;;;;2590222;22;20195;-62
2023/09/17 04:09:57;;;;;;;4.60;4.20;;;;;24.10;100174.00;;;;2577784;23;20195;-62
2023/09/17 04:10:58;;;;;;;3.73;3.43;;;;;24.10;100170.00;;;;2563130;22;20216;-62
2023/09/17 04:12:02;;;;;;;4.03;3.73;;;;;23.50;100170.00;;;;2590416;22;20195;-62
2023/09/17 04:13:03;;;;;;;4.20;3.83;;;;;24.10;100175.00;;;;2578155;23;20197;-62
2023/09/17 04:14:04;;;;;;;3.73;3.43;;;;;24.10;100169.00;;;;2578165;22;20192;-62
2023/09/17 04:15:13;;;;;;;3.80;3.50;;;;;24.10;100163.00;;;;2591645;22;20191;-62
2023/09/17 04:16:13;;;;;;;3.70;3.40;;;;;24.10;100173.00;;;;2563518;23;20204;-62
2023/09/17 04:17:14;;;;;;;3.70;3.40;;;;;24.10;100175.00;;;;2577103;22;20638;-61
2023/09/17 04:18:15;;;;;;;4.10;3.80;;;;;24.10;100172.00;;;;2591187;22;20204;-62
2023/09/17 04:19:15;;;;;;;3.87;3.57;;;;;24.10;100173.00;;;;2589448;22;20223;-62
2023/09/17 04:20:18;;;;;;;4.33;3.93;;;;;24.10;100166.00;;;;2576151;23;20199;-62
2023/09/17 04:21:18;;;;;;;4.13;3.83;;;;;24.10;100164.00;;;;2547569;23;20197;-62
2023/09/17 04:22:19;;;;;;;4.07;3.40;;;;;24.10;100170.00;;;;2559892;22;20655;-62
2023/09/17 04:23:19;;;;;;;4.00;3.70;;;;;24.10;100178.00;;;;2577775;23;20196;-62
2023/09/17 04:24:19;;;;;;;3.80;3.50;;;;;24.10;100170.00;;;;2590534;22;20190;-62
2023/09/17 04:25:20;;;;;;;3.60;3.30;;;;;24.10;100158.00;;;;2591314;22;20187;-62
2023/09/17 04:26:24;;;;;;;4.17;3.77;;;;;24.10;100180.00;;;;2548322;23;20257;-62
2023/09/17 04:27:24;;;;;;;3.90;3.60;;;;;24.10;100175.00;;;;2563370;22;20188;-62
2023/09/17 04:28:25;;;;;;;4.00;3.70;;;;;24.10;100177.00;;;;2591044;22;20313;-62
2023/09/17 04:29:25;;;;;;;3.90;3.60;;;;;24.10;100181.00;;;;2590253;22;20244;-62
2023/09/17 04:30:26;;;;;;;3.77;3.47;;;;;24.10;100178.00;;;;2591554;22;20191;-62
2023/09/17 04:31:27;;;;;;;3.60;3.30;;;;;24.10;100180.00;;;;2572963;22;20211;-63
2023/09/17 04:32:28;;;;;;;3.90;3.60;;;;;24.10;100178.00;;;;2588461;22;20188;-63
2023/09/17 04:33:28;;;;;;;4.23;3.90;;;;;24.10;100170.00;;;;2590971;22;20273;-63
2023/09/17 04:34:28;;;;;;;3.77;3.47;;;;;24.10;100166.00;;;;2578291;23;20192;-63
2023/09/17 04:35:29;;;;;;;3.53;3.27;;;;;24.10;100174.00;;;;2564722;23;20199;-63
2023/09/17 04:36:29;;;;;;;3.87;3.57;;;;;24.10;100170.00;;;;2550922;23;20299;-62
2023/09/17 04:37:29;;;;;;;3.80;3.50;;;;;24.10;100177.00;;;;2577676;23;20192;-63
2023/09/17 04:38:30;;;;;;;3.50;3.20;;;;;24.10;100175.00;;;;2590533;22;20203;-62
2023/09/17 04:39:31;;;;;;;3.80;3.50;;;;;24.10;100171.00;;;;2590187;22;20691;-63
2023/09/17 04:40:31;;;;;;;3.40;3.10;;;;;24.10;100170.00;;;;2589113;22;20839;-62
2023/09/17 04:41:31;;;;;;;4.37;4.07;;;;;24.10;100163.00;;;;2576357;22;20195;-62
2023/09/17 04:42:32;;;;;;;4.30;4.00;;;;;24.10;100162.00;;;;2577804;23;20196;-62
2023/09/17 04:43:32;;;;;;;4.00;3.60;;;;;24.10;100161.00;;;;2565533;23;20196;-63
2023/09/17 04:44:32;;;;;;;4.30;4.00;;;;;24.10;100160.00;;;;2578227;23;20230;-62
2023/09/17 04:45:38;;;;;;;4.17;3.87;;;;;24.10;100162.00;;;;2590839;22;20609;-62
2023/09/17 04:46:42;;;;;;;3.80;3.50;;;;;24.10;100167.00;;;;2561535;23;20189;-62
2023/09/17 04:47:43;;;;;;;3.95;3.65;;;;;24.10;100166.00;;;;2561346;23;20200;-62
2023/09/17 04:48:44;;;;;;;3.20;3.00;;;;;24.10;100163.00;;;;2575260;22;20267;-62
2023/09/17 04:49:44;;;;;;;3.70;3.40;;;;;24.10;100161.00;;;;2590799;22;20612;-62
2023/09/17 04:50:46;;;;;;;4.10;3.80;;;;;24.10;100165.00;;;;2591277;22;20230;-62
2023/09/17 04:51:46;;;;;;;4.00;3.67;;;;;24.10;100174.00;;;;2574049;22;20545;-62
2023/09/17 04:52:46;;;;;;;3.90;3.60;;;;;24.10;100162.00;;;;2587944;22;20183;-62
2023/09/17 04:53:47;;;;;;;3.63;3.33;;;;;24.10;100167.00;;;;2591018;22;20268;-62
2023/09/17 04:54:47;;;;;;;3.73;3.43;;;;;24.10;100165.00;;;;2570164;23;20192;-62
2023/09/17 04:55:47;;;;;;;3.80;3.50;;;;;24.10;100167.00;;;;2577942;22;20192;-62
2023/09/17 04:56:48;;;;;;;3.93;3.63;;;;;24.10;100171.00;;;;2576359;22;20196;-62
2023/09/17 04:57:48;;;;;;;4.07;3.10;;;;;24.10;100172.00;;;;2590047;22;20298;-62
2023/09/17 04:58:48;;;;;;;4.00;3.70;;;;;24.10;100163.00;;;;2590199;22;20192;-62
2023/09/17 04:59:49;;;;;;;3.30;3.10;;;;;24.10;100174.00;;;;2571208;23;20651;-62
2023/09/17 05:00:50;;;;;;;4.33;3.87;;;;;24.10;100165.00;;;;2569210;23;20803;-63
2023/09/17 05:01:50;;;;;;;3.53;3.23;;;;;24.10;100170.00;;;;2590659;22;20413;-62